Time;durP1;ratioP1;P1;durP2;ratioP2;P2;SDS_P1;SDS_P2;PMS_P1;PMS_P2;Temp;Humidity;BMP_temperature;BMP_pressure;BME280_temperature;BME280_humidity;BME280_pressure;Samples;Min_cycle;Max_cycle;Signal;HPM_P1;HPM_P2
2021/05/20 00:01:49;;;;;;;442.70;255.87;;;;;;;10.03;78.08;98493.56;5032640;28;20298;-63
2021/05/20 00:04:15;;;;;;;447.60;248.93;;;;;;;10.05;78.55;98487.56;5014644;28;20040;-62
2021/05/20 00:06:41;;;;;;;431.83;234.63;;;;;;;10.03;78.43;98484.19;5031786;28;20029;-63
2021/05/20 00:09:07;;;;;;;436.30;239.47;;;;;;;10.03;77.93;98488.44;5040130;28;20550;-63
2021/05/20 00:11:33;;;;;;;441.90;245.93;;;;;;;10.05;78.04;98484.16;5033164;28;20022;-64
2021/05/20 00:13:59;;;;;;;436.80;239.43;;;;;;;10.08;78.51;98508.00;5035241;28;20576;-63
2021/05/20 00:16:25;;;;;;;434.67;236.50;;;;;;;9.97;78.14;98499.66;5032965;28;20044;-63
2021/05/20 00:18:51;;;;;;;436.53;242.70;;;;;;;10.00;78.94;98491.06;5029676;28;20262;-63
2021/05/20 00:21:17;;;;;;;438.33;248.63;;;;;;;9.98;78.72;98496.22;5033180;28;20622;-63
2021/05/20 00:23:43;;;;;;;435.27;243.23;;;;;;;9.95;78.57;98485.19;5037663;28;20040;-63
2021/05/20 00:26:12;;;;;;;432.23;235.40;;;;;;;9.93;78.99;98505.69;5033606;28;20117;-63
2021/05/20 00:28:39;;;;;;;431.27;241.77;;;;;;;9.89;79.29;98491.25;5034963;28;20021;-63
2021/05/20 00:31:05;;;;;;;428.80;222.70;;;;;;;9.94;79.59;98498.88;5038199;28;20267;-63
2021/05/20 00:33:31;;;;;;;432.70;232.93;;;;;;;9.87;80.26;98515.22;5030786;28;20291;-64
2021/05/20 00:35:57;;;;;;;439.43;240.40;;;;;;;9.89;79.52;98518.59;5029805;28;20362;-63
2021/05/20 00:38:23;;;;;;;439.67;241.13;;;;;;;9.83;79.85;98523.81;5034966;28;20021;-64
2021/05/20 00:40:48;;;;;;;435.83;237.33;;;;;;;9.89;79.08;98514.31;5031470;28;20040;-64
2021/05/20 00:43:14;;;;;;;432.10;231.33;;;;;;;9.84;79.11;98522.97;5034592;28;20331;-63
2021/05/20 00:45:40;;;;;;;432.67;232.87;;;;;;;9.89;79.36;98506.63;5037726;28;20049;-64
2021/05/20 00:48:06;;;;;;;429.77;229.23;;;;;;;9.92;79.49;98519.41;5030801;28;20053;-64
2021/05/20 00:50:32;;;;;;;428.63;226.10;;;;;;;9.89;79.52;98523.69;5034382;28;20020;-64
2021/05/20 00:52:58;;;;;;;431.17;230.03;;;;;;;9.85;80.05;98528.03;5035853;28;20276;-64
2021/05/20 00:55:30;;;;;;;429.53;225.60;;;;;;;9.81;81.32;98531.53;5029458;28;20710;-64
2021/05/20 00:58:00;;;;;;;434.23;232.47;;;;;;;9.77;81.15;98527.34;5030657;28;20029;-64
2021/05/20 01:00:26;;;;;;;440.10;235.77;;;;;;;9.81;81.16;98526.41;5032490;28;20275;-64
2021/05/20 01:02:52;;;;;;;437.20;236.10;;;;;;;9.76;81.84;98523.06;5027583;28;20288;-64
2021/05/20 01:05:18;;;;;;;436.87;238.30;;;;;;;9.73;82.43;98528.25;5027394;28;20030;-64
2021/05/20 01:07:43;;;;;;;431.77;224.63;;;;;;;9.66;82.33;98530.97;5033745;28;20268;-64
2021/05/20 01:10:11;;;;;;;432.83;228.13;;;;;;;9.77;82.82;98531.59;5032188;28;20040;-64
2021/05/20 01:12:37;;;;;;;430.43;226.20;;;;;;;9.73;82.62;98528.25;5030465;28;20014;-65
2021/05/20 01:15:04;;;;;;;427.27;222.60;;;;;;;9.65;83.31;98537.78;5028731;28;20276;-63
2021/05/20 01:17:30;;;;;;;429.03;226.83;;;;;;;9.58;83.88;98539.63;5027666;28;20330;-63
2021/05/20 01:19:56;;;;;;;432.77;230.87;;;;;;;9.66;83.42;98541.19;5030423;28;20529;-63
2021/05/20 01:22:22;;;;;;;429.03;221.50;;;;;;;9.61;84.15;98543.81;5029145;28;20300;-63
2021/05/20 01:24:48;;;;;;;434.40;228.00;;;;;;;9.56;84.03;98523.44;5028857;28;20276;-64
2021/05/20 01:27:15;;;;;;;438.60;232.47;;;;;;;9.58;83.24;98539.63;5030287;28;20330;-62
2021/05/20 01:29:42;;;;;;;440.43;230.73;;;;;;;9.61;83.57;98539.56;5030590;28;20334;-63
2021/05/20 01:32:09;;;;;;;449.83;241.90;;;;;;;9.58;83.23;98544.75;5031293;28;20268;-62
2021/05/20 01:34:36;;;;;;;442.77;236.90;;;;;;;9.58;83.13;98536.22;5032433;28;20655;-62
2021/05/20 01:37:03;;;;;;;445.53;242.43;;;;;;;9.53;83.09;98543.13;5032282;28;20534;-63
2021/05/20 01:39:28;;;;;;;440.23;233.37;;;;;;;9.47;84.14;98532.97;5029017;28;20275;-63
2021/05/20 01:41:54;;;;;;;440.37;232.90;;;;;;;9.45;83.89;98524.47;5030714;28;20819;-62
2021/05/20 01:44:21;;;;;;;441.17;235.33;;;;;;;9.46;84.01;98524.44;5029179;28;20324;-63
2021/05/20 01:46:47;;;;;;;430.60;218.33;;;;;;;9.45;83.41;98538.13;5034052;28;20311;-63
2021/05/20 01:49:13;;;;;;;435.50;226.13;;;;;;;9.40;83.11;98534.78;5039489;28;20496;-64
2021/05/20 01:51:40;;;;;;;428.60;214.03;;;;;;;9.44;83.75;98540.69;5027532;28;20029;-63
2021/05/20 01:54:06;;;;;;;424.03;212.27;;;;;;;9.41;83.26;98539.03;5032922;28;20271;-63
2021/05/20 01:56:36;;;;;;;430.63;218.17;;;;;;;9.39;83.12;98545.88;5034839;28;20277;-68
2021/05/20 01:59:07;;;;;;;431.53;220.63;;;;;;;9.42;83.99;98548.38;5030467;28;20718;-63
2021/05/20 02:01:33;;;;;;;438.27;227.47;;;;;;;9.44;83.59;98545.81;5030905;28;20658;-63
2021/05/20 02:04:00;;;;;;;429.20;218.93;;;;;;;9.46;82.36;98549.22;5031736;28;20316;-63
2021/05/20 02:06:26;;;;;;;430.63;219.80;;;;;;;9.41;82.42;98545.88;5031026;28;20269;-64
2021/05/20 02:08:51;;;;;;;428.67;217.17;;;;;;;9.54;82.89;98558.44;5031901;28;20268;-64
2021/05/20 02:11:17;;;;;;;430.33;213.97;;;;;;;9.51;83.16;98568.72;5028158;28;20287;-64
2021/05/20 02:13:43;;;;;;;437.70;227.50;;;;;;;9.55;82.77;98572.06;5027253;28;20028;-62
2021/05/20 02:16:09;;;;;;;430.00;219.07;;;;;;;9.55;82.33;98569.50;5038036;28;20033;-64
2021/05/20 02:18:37;;;;;;;431.40;223.67;;;;;;;9.56;83.54;98574.63;5036396;28;20057;-63
2021/05/20 02:21:04;;;;;;;434.87;228.50;;;;;;;9.57;83.36;98567.78;5033220;28;20276;-63
2021/05/20 02:23:30;;;;;;;426.70;218.10;;;;;;;9.56;82.94;98550.72;5030632;28;20306;-63
2021/05/20 02:25:55;;;;;;;429.23;219.37;;;;;;;9.54;82.98;98544.81;5030017;28;20527;-63
2021/05/20 02:28:21;;;;;;;428.83;217.37;;;;;;;9.36;84.12;98547.66;5028445;28;20543;-63
2021/05/20 02:30:47;;;;;;;426.07;215.87;;;;;;;9.31;84.15;98545.16;5031291;28;20029;-63
2021/05/20 02:33:14;;;;;;;427.23;217.80;;;;;;;9.27;84.29;98558.88;5030071;28;20022;-63
2021/05/20 02:35:40;;;;;;;434.07;229.37;;;;;;;9.24;84.01;98547.84;5030122;28;20295;-63
2021/05/20 02:38:06;;;;;;;430.80;216.63;;;;;;;9.20;83.64;98543.63;5032183;28;20287;-64
2021/05/20 02:40:33;;;;;;;425.70;208.90;;;;;;;9.23;83.00;98559.78;5032479;28;20268;-63
2021/05/20 02:43:00;;;;;;;423.00;204.33;;;;;;;9.23;82.35;98556.38;5030060;28;20695;-64
2021/05/20 02:45:26;;;;;;;424.90;211.23;;;;;;;9.24;82.12;98564.03;5013205;28;20641;-64
2021/05/20 02:47:53;;;;;;;428.47;215.63;;;;;;;9.22;81.27;98559.78;5031594;28;20285;-63
2021/05/20 02:50:22;;;;;;;422.33;205.97;;;;;;;9.24;81.89;98564.03;5025987;28;20276;-63
2021/05/20 02:52:48;;;;;;;426.67;210.17;;;;;;;9.24;80.99;98558.06;5031304;28;20260;-63
2021/05/20 02:55:18;;;;;;;421.53;202.07;;;;;;;9.24;81.49;98570.88;5026681;28;20646;-65
2021/05/20 02:58:03;;;;;;;428.13;213.23;;;;;;;9.26;81.32;98562.28;5027789;28;20326;-63
2021/05/20 03:00:34;;;;;;;420.48;203.68;;;;;;;9.24;81.53;98566.59;5034422;28;20280;-63
2021/05/20 03:03:00;;;;;;;424.80;205.53;;;;;;;9.27;81.81;98573.38;5033873;28;20060;-62
2021/05/20 03:05:25;;;;;;;421.53;205.87;;;;;;;9.27;80.55;98574.22;5014735;28;20275;-65
2021/05/20 03:07:55;;;;;;;435.23;222.20;;;;;;;9.34;81.46;98580.06;5029775;28;20648;-65
2021/05/20 03:10:20;;;;;;;425.53;207.93;;;;;;;9.31;81.07;98580.97;5028938;28;20029;-65
2021/05/20 03:12:46;;;;;;;434.77;215.47;;;;;;;9.29;81.22;98587.00;5031221;28;21032;-63
2021/05/20 03:15:12;;;;;;;421.53;202.30;;;;;;;9.31;80.83;98580.97;5017551;28;20360;-64
2021/05/20 03:17:38;;;;;;;427.70;213.67;;;;;;;9.32;80.41;98576.72;5029823;28;20029;-63
2021/05/20 03:20:06;;;;;;;421.23;206.07;;;;;;;9.34;80.92;98574.94;5029794;28;20326;-62
2021/05/20 03:22:31;;;;;;;425.83;210.57;;;;;;;9.30;80.29;98596.34;5030532;28;20378;-63
2021/05/20 03:24:57;;;;;;;421.70;200.90;;;;;;;9.31;80.99;98598.88;5030110;28;20359;-63
2021/05/20 03:27:23;;;;;;;430.20;214.77;;;;;;;9.36;80.24;98583.47;5026662;28;20030;-63
2021/05/20 03:29:49;;;;;;;426.83;210.30;;;;;;;9.34;79.74;98595.41;5028922;28;20025;-63
2021/05/20 03:32:15;;;;;;;424.10;209.40;;;;;;;9.32;80.28;98604.84;5028278;28;20714;-62
2021/05/20 03:34:41;;;;;;;421.57;204.30;;;;;;;9.34;80.50;98597.97;5028106;28;20360;-64
2021/05/20 03:37:07;;;;;;;418.90;197.97;;;;;;;9.33;80.33;98614.22;5032972;28;20063;-64
2021/05/20 03:39:33;;;;;;;421.17;208.60;;;;;;;9.32;80.07;98607.41;5031682;28;20025;-64
2021/05/20 03:41:58;;;;;;;419.00;204.90;;;;;;;9.28;79.97;98610.88;5031089;28;20064;-64
2021/05/20 03:44:24;;;;;;;422.23;202.33;;;;;;;9.31;80.42;98608.25;5032780;28;20280;-64
2021/05/20 03:46:50;;;;;;;420.67;206.47;;;;;;;9.28;80.35;98621.13;5032594;28;20470;-63
2021/05/20 03:49:17;;;;;;;416.97;199.90;;;;;;;9.28;80.35;98606.59;5035027;28;20036;-64
2021/05/20 03:51:42;;;;;;;420.03;202.53;;;;;;;9.29;79.56;98607.47;5031819;28;20283;-64
2021/05/20 03:54:08;;;;;;;422.60;203.63;;;;;;;9.30;79.88;98612.53;5032836;28;20290;-64
2021/05/20 03:56:34;;;;;;;421.83;203.03;;;;;;;9.29;79.87;98620.25;5032937;28;20033;-64
2021/05/20 03:59:00;;;;;;;419.73;201.13;;;;;;;9.29;79.67;98605.75;5032717;28;20047;-63
2021/05/20 04:01:25;;;;;;;422.97;209.13;;;;;;;9.27;79.16;98610.03;5030711;28;20029;-63
2021/05/20 04:03:51;;;;;;;422.50;202.23;;;;;;;9.27;79.54;98602.34;5031586;28;20037;-67
2021/05/20 04:06:17;;;;;;;418.90;200.00;;;;;;;9.31;79.47;98610.81;5031365;28;20040;-64
2021/05/20 04:08:43;;;;;;;416.67;195.70;;;;;;;9.26;79.55;98610.88;5031726;28;20045;-64
2021/05/20 04:11:09;;;;;;;421.03;199.50;;;;;;;9.31;78.94;98611.69;5034013;28;20044;-64
2021/05/20 04:13:38;;;;;;;425.37;210.60;;;;;;;9.34;79.24;98603.94;5038838;28;20033;-64
2021/05/20 04:16:05;;;;;;;419.40;197.83;;;;;;;9.42;78.53;98624.31;5033618;28;20135;-64
2021/05/20 04:18:31;;;;;;;424.43;206.13;;;;;;;9.44;78.37;98630.25;5032107;28;20283;-64
2021/05/20 04:20:58;;;;;;;420.97;208.50;;;;;;;9.49;78.82;98623.38;5033366;28;20289;-64
2021/05/20 04:23:25;;;;;;;424.07;205.70;;;;;;;9.50;77.79;98627.63;5032435;28;20288;-63
2021/05/20 04:25:51;;;;;;;426.07;212.27;;;;;;;9.55;77.69;98618.97;5030432;28;20271;-64
2021/05/20 04:28:17;;;;;;;423.60;211.40;;;;;;;9.53;78.02;98633.53;5034636;28;20357;-63
2021/05/20 04:30:44;;;;;;;420.77;204.37;;;;;;;9.60;78.15;98635.13;5033459;28;20552;-63
2021/05/20 04:33:10;;;;;;;421.90;209.70;;;;;;;9.59;77.96;98619.78;5034353;28;20789;-64
2021/05/20 04:35:36;;;;;;;428.43;218.43;;;;;;;9.61;76.92;98646.22;5034024;28;20287;-63
2021/05/20 04:38:04;;;;;;;423.77;209.27;;;;;;;9.72;76.52;98648.63;5034247;28;20276;-64
2021/05/20 04:40:31;;;;;;;421.53;210.37;;;;;;;9.82;76.24;98637.34;5032924;28;20299;-64
2021/05/20 04:42:57;;;;;;;422.83;212.17;;;;;;;9.89;76.72;98638.94;5031195;28;20342;-63
2021/05/20 04:45:22;;;;;;;422.67;213.47;;;;;;;9.90;75.31;98650.88;5028012;28;20276;-63
2021/05/20 04:47:48;;;;;;;421.57;217.33;;;;;;;9.93;74.71;98649.09;5028224;28;20358;-64
2021/05/20 04:50:17;;;;;;;419.70;214.97;;;;;;;10.03;74.49;98655.78;5034934;28;20559;-64
2021/05/20 04:52:43;;;;;;;430.17;226.90;;;;;;;9.98;74.39;98672.06;5030769;28;20262;-64
2021/05/20 04:55:11;;;;;;;426.23;218.83;;;;;;;10.11;74.15;98660.75;5035805;28;20669;-64
2021/05/20 04:57:37;;;;;;;420.30;217.40;;;;;;;10.03;73.88;98654.94;5037253;28;20354;-64
2021/05/20 05:00:05;;;;;;;425.53;226.83;;;;;;;10.15;74.93;98665.00;5031519;28;20287;-64
2021/05/20 05:02:31;;;;;;;429.77;226.23;;;;;;;10.15;74.68;98659.00;5031790;28;20621;-64
2021/05/20 05:04:56;;;;;;;430.80;227.40;;;;;;;10.13;73.63;98676.13;5030792;28;20335;-65
2021/05/20 05:07:23;;;;;;;420.43;223.40;;;;;;;10.18;74.07;98664.13;5035292;28;20335;-64
2021/05/20 05:09:49;;;;;;;425.93;227.00;;;;;;;10.21;73.75;98674.31;5032582;28;20032;-64
2021/05/20 05:12:14;;;;;;;425.57;221.83;;;;;;;10.23;73.67;98672.53;5031527;28;20343;-64
2021/05/20 05:14:41;;;;;;;418.40;226.07;;;;;;;10.28;73.03;98686.97;5032394;28;20036;-64
2021/05/20 05:17:06;;;;;;;423.50;224.07;;;;;;;10.30;73.67;98679.28;5029546;28;20043;-64
2021/05/20 05:19:32;;;;;;;420.80;222.57;;;;;;;10.33;72.84;98674.09;5033743;28;20272;-64
2021/05/20 05:22:02;;;;;;;425.63;235.07;;;;;;;10.27;72.88;98653.72;5030417;28;20026;-63
2021/05/20 05:24:28;;;;;;;428.00;234.23;;;;;;;10.35;72.90;98677.50;5030378;28;20356;-64
2021/05/20 05:26:54;;;;;;;434.23;243.50;;;;;;;10.38;73.07;98678.28;5028249;28;20644;-66
2021/05/20 05:29:20;;;;;;;436.77;245.40;;;;;;;10.41;72.12;98675.66;5032744;28;20271;-65
2021/05/20 05:31:45;;;;;;;430.13;240.03;;;;;;;10.54;71.88;98676.28;5032220;28;20035;-63
2021/05/20 05:34:11;;;;;;;426.00;232.57;;;;;;;10.54;71.74;98678.84;5029769;28;20026;-67
2021/05/20 05:36:37;;;;;;;432.33;246.60;;;;;;;10.50;71.54;98690.88;5034469;28;20049;-63
2021/05/20 05:39:04;;;;;;;430.07;244.73;;;;;;;10.55;71.45;98670.28;5034279;28;20045;-64
2021/05/20 05:41:30;;;;;;;432.03;249.53;;;;;;;10.60;70.89;98688.16;5025902;28;20116;-64
2021/05/20 05:43:56;;;;;;;437.40;254.37;;;;;;;10.63;71.29;98690.66;5029111;28;20284;-61
2021/05/20 05:46:22;;;;;;;433.30;248.83;;;;;;;10.75;71.49;98686.13;5031271;28;20332;-62
2021/05/20 05:48:49;;;;;;;438.17;256.73;;;;;;;10.91;70.90;98678.97;5031522;28;20046;-61
2021/05/20 05:51:16;;;;;;;433.00;238.73;;;;;;;10.88;70.73;98674.78;5030612;28;20039;-61
2021/05/20 05:53:42;;;;;;;436.50;245.30;;;;;;;10.92;70.01;98686.66;5028794;28;20300;-61
2021/05/20 05:56:08;;;;;;;432.53;243.57;;;;;;;11.04;69.19;98679.59;5027160;28;20310;-61
2021/05/20 05:58:33;;;;;;;436.00;251.50;;;;;;;11.13;69.21;98672.56;5029791;28;20581;-61
2021/05/20 06:00:59;;;;;;;436.07;256.67;;;;;;;11.14;67.85;98681.09;5026707;28;20033;-61
2021/05/20 06:03:26;;;;;;;436.80;252.87;;;;;;;11.22;68.41;98679.22;5027516;28;20046;-61
2021/05/20 06:05:52;;;;;;;435.90;255.47;;;;;;;11.20;68.42;98686.13;5027393;28;20278;-61
2021/05/20 06:08:18;;;;;;;432.23;255.80;;;;;;;11.31;67.88;98682.44;5029374;28;20288;-61
2021/05/20 06:10:44;;;;;;;435.17;256.17;;;;;;;11.33;68.35;98683.25;5028872;28;20125;-60
2021/05/20 06:13:10;;;;;;;433.43;259.03;;;;;;;11.45;67.25;98687.28;5027773;28;20367;-61
2021/05/20 06:15:35;;;;;;;429.63;251.37;;;;;;;11.43;67.00;98684.75;5027673;28;20085;-60
2021/05/20 06:18:01;;;;;;;433.10;256.70;;;;;;;11.53;66.74;98697.38;5031792;28;20033;-61
2021/05/20 06:20:26;;;;;;;431.27;255.77;;;;;;;11.46;67.17;98702.66;5029332;28;20128;-61
2021/05/20 06:22:53;;;;;;;433.80;257.03;;;;;;;11.53;67.36;98703.38;5026205;28;20425;-61
2021/05/20 06:25:19;;;;;;;434.67;259.73;;;;;;;11.53;66.59;98703.38;5028535;28;20276;-61
2021/05/20 06:27:44;;;;;;;431.70;259.70;;;;;;;11.64;66.25;98703.97;5029377;28;20295;-60
2021/05/20 06:30:10;;;;;;;433.37;259.90;;;;;;;11.64;67.01;98703.13;5033370;28;20037;-60
2021/05/20 06:32:36;;;;;;;440.23;276.37;;;;;;;11.72;66.47;98711.53;5029857;28;20072;-60
2021/05/20 06:35:03;;;;;;;437.00;273.93;;;;;;;11.89;64.95;98717.97;5034190;28;20389;-61
2021/05/20 06:37:29;;;;;;;438.10;273.67;;;;;;;11.97;65.31;98722.94;5032729;28;20041;-61
2021/05/20 06:39:54;;;;;;;438.00;268.23;;;;;;;11.99;65.02;98730.63;5027317;28;20606;-60
2021/05/20 06:42:19;;;;;;;437.63;280.37;;;;;;;12.00;65.41;98728.03;5027669;28;20382;-62
2021/05/20 06:44:45;;;;;;;440.07;278.20;;;;;;;12.09;64.16;98734.69;5031139;28;20048;-62
2021/05/20 06:47:11;;;;;;;436.80;274.83;;;;;;;12.00;64.02;98729.75;5031138;28;20385;-61
2021/05/20 06:49:36;;;;;;;451.23;295.67;;;;;;;12.19;64.70;98728.44;5031701;28;20034;-62
2021/05/20 06:52:02;;;;;;;437.73;283.03;;;;;;;12.21;62.55;98727.53;5034288;28;20066;-62
2021/05/20 06:54:27;;;;;;;439.63;285.77;;;;;;;12.36;62.31;98726.28;5028240;28;20378;-62
2021/05/20 06:56:59;;;;;;;449.73;309.80;;;;;;;12.44;61.56;98732.09;5028838;28;20036;-62
2021/05/20 07:02:08;;;;;;;448.60;309.13;;;;;;;12.65;60.09;98740.97;5034572;28;20633;-61
2021/05/20 07:04:34;;;;;;;462.63;329.50;;;;;;;12.73;59.42;98739.09;5033196;28;20288;-62
2021/05/20 07:07:03;;;;;;;456.40;323.97;;;;;;;12.91;60.04;98740.31;5026354;28;20029;-62
2021/05/20 07:09:33;;;;;;;461.10;335.03;;;;;;;12.97;59.55;98755.59;5028351;28;20067;-62
2021/05/20 07:12:01;;;;;;;459.63;341.60;;;;;;;12.85;59.45;98735.34;5029711;28;20284;-62
2021/05/20 07:14:27;;;;;;;460.50;333.93;;;;;;;12.79;59.49;98744.91;5027458;28;20276;-63
2021/05/20 07:16:53;;;;;;;458.80;342.10;;;;;;;12.94;60.22;98746.25;5030202;28;20280;-63
2021/05/20 07:19:20;;;;;;;457.37;335.63;;;;;;;12.93;60.40;98741.97;5028687;28;20040;-63
2021/05/20 07:21:46;;;;;;;458.87;342.70;;;;;;;13.04;60.71;98741.66;5029139;28;20048;-62
2021/05/20 07:24:11;;;;;;;459.63;343.77;;;;;;;13.25;59.31;98741.13;5015299;28;20382;-63
2021/05/20 07:26:37;;;;;;;460.83;353.80;;;;;;;13.07;60.11;98739.03;5028810;28;20457;-64
2021/05/20 07:29:04;;;;;;;459.73;348.07;;;;;;;13.26;59.17;98763.41;5029746;28;20404;-65
2021/05/20 07:31:31;;;;;;;457.50;351.20;;;;;;;13.32;58.77;98750.38;5030830;28;20056;-64
2021/05/20 07:33:57;;;;;;;464.67;353.47;;;;;;;13.34;58.19;98745.16;5034669;28;20028;-63
2021/05/20 07:36:22;;;;;;;469.33;360.13;;;;;;;13.33;58.58;98743.47;5029792;28;20345;-63
2021/05/20 07:38:48;;;;;;;466.40;360.67;;;;;;;13.37;57.65;98756.22;5029204;28;20045;-63
2021/05/20 07:41:14;;;;;;;469.63;357.60;;;;;;;13.45;56.75;98763.75;5029599;28;20026;-63
2021/05/20 07:43:40;;;;;;;464.13;358.90;;;;;;;13.43;57.58;98757.78;5030820;28;20375;-63
2021/05/20 07:46:05;;;;;;;467.07;365.90;;;;;;;13.53;58.24;98757.50;5035746;28;20111;-63
2021/05/20 07:48:33;;;;;;;466.20;363.10;;;;;;;13.68;57.64;98766.50;5035150;28;20049;-63
2021/05/20 07:51:00;;;;;;;463.20;354.23;;;;;;;13.83;56.76;98750.59;5025326;28;20294;-63
2021/05/20 07:53:25;;;;;;;462.20;357.60;;;;;;;13.60;55.96;98769.28;5028796;28;20124;-63
2021/05/20 07:55:50;;;;;;;464.17;366.00;;;;;;;13.58;56.77;98765.91;5026995;28;20136;-63
2021/05/20 07:58:16;;;;;;;460.50;366.87;;;;;;;13.44;58.00;98770.63;5027903;28;20071;-63
2021/05/20 08:00:41;;;;;;;466.73;375.50;;;;;;;13.47;57.13;98769.69;5032082;28;20048;-63
2021/05/20 08:05:58;;;;;;;462.23;368.70;;;;;;;13.95;56.98;98776.00;5028642;28;20367;-62
2021/05/20 08:11:01;;;;;;;464.83;380.60;;;;;;;14.18;55.99;98785.59;5033334;28;20025;-63
2021/05/20 08:13:27;;;;;;;468.93;395.47;;;;;;;14.29;55.89;98747.44;5028848;28;20040;-63
2021/05/20 08:15:52;;;;;;;467.73;388.43;;;;;;;14.65;56.07;98763.47;5027725;28;20743;-62
2021/05/20 08:18:18;;;;;;;466.33;388.60;;;;;;;14.36;54.08;98777.31;5032382;28;20577;-63
2021/05/20 08:20:43;;;;;;;467.33;397.50;;;;;;;14.54;54.88;98779.31;5026690;28;20048;-63
2021/05/20 08:23:09;;;;;;;466.53;400.13;;;;;;;14.67;54.89;98776.31;5027310;28;20279;-63
2021/05/20 08:25:34;;;;;;;467.23;402.17;;;;;;;14.35;55.03;98778.19;5031943;28;20262;-62
2021/05/20 08:28:00;;;;;;;467.40;398.07;;;;;;;14.15;56.65;98768.50;5032295;28;20464;-63
2021/05/20 08:30:25;;;;;;;467.77;393.07;;;;;;;14.27;55.29;98768.97;5031691;28;20100;-63
2021/05/20 08:32:51;;;;;;;466.37;386.93;;;;;;;13.92;55.91;98759.78;5032807;28;20053;-63
2021/05/20 08:35:17;;;;;;;467.53;388.93;;;;;;;14.29;56.95;98774.94;5027792;28;20030;-63
2021/05/20 08:37:43;;;;;;;466.03;391.47;;;;;;;14.53;55.29;98767.28;5031000;28;20371;-63
2021/05/20 08:40:11;;;;;;;466.20;395.93;;;;;;;14.45;54.54;98802.81;5033410;28;20040;-63
2021/05/20 08:42:38;;;;;;;479.43;403.47;;;;;;;14.18;54.00;98780.44;5034931;28;20141;-63
2021/05/20 08:45:19;;;;;;;471.17;401.77;;;;;;;14.23;53.97;98772.56;5030909;28;20038;-62
2021/05/20 08:47:47;;;;;;;471.03;392.87;;;;;;;14.30;54.70;98784.38;5031090;28;20076;-63
2021/05/20 08:50:13;;;;;;;470.87;401.30;;;;;;;14.67;53.89;98776.31;5033085;28;20029;-63
2021/05/20 08:52:40;;;;;;;470.83;403.77;;;;;;;14.56;52.71;98766.34;5033398;28;20405;-62
2021/05/20 08:55:08;;;;;;;469.23;406.57;;;;;;;14.78;53.02;98789.69;5031769;28;20025;-62
2021/05/20 08:57:34;;;;;;;473.67;416.03;;;;;;;14.91;53.32;98786.66;5033779;28;20392;-62
2021/05/20 09:00:02;;;;;;;471.97;406.67;;;;;;;14.86;53.36;98783.38;5034655;28;20376;-64
2021/05/20 09:02:29;;;;;;;475.90;421.73;;;;;;;15.24;51.67;98771.72;5030521;28;20044;-63
2021/05/20 09:05:11;;;;;;;487.53;434.60;;;;;;;15.45;50.90;98778.72;5033673;28;20033;-64
2021/05/20 09:07:38;;;;;;;503.30;449.83;;;;;;;15.56;52.35;98785.28;5032770;28;20032;-63
2021/05/20 09:10:19;;;;;;;510.60;456.77;;;;;;;15.58;51.03;98788.63;5034530;28;20017;-62
2021/05/20 09:12:46;;;;;;;501.63;448.00;;;;;;;15.36;51.95;98778.22;5031968;28;20289;-62
2021/05/20 09:15:44;;;;;;;512.83;459.30;;;;;;;15.90;50.68;98772.78;5030893;28;20021;-63
2021/05/20 09:18:13;;;;;;;509.10;455.60;;;;;;;15.59;50.29;98775.66;5024350;28;20049;-63
2021/05/20 09:20:42;;;;;;;510.57;457.00;;;;;;;15.11;52.26;98801.47;5034777;28;20043;-62
2021/05/20 09:23:16;;;;;;;501.10;447.70;;;;;;;14.67;53.65;98789.22;5032187;28;20378;-62
2021/05/20 09:25:43;;;;;;;492.43;439.23;;;;;;;14.71;54.11;98789.06;5031857;28;20116;-62
2021/05/20 09:28:11;;;;;;;491.17;438.13;;;;;;;14.89;53.57;98793.63;5033231;28;20030;-61
2021/05/20 09:30:48;;;;;;;489.80;436.97;;;;;;;15.44;52.13;98795.13;5032772;28;20029;-62
2021/05/20 09:33:16;;;;;;;496.03;442.73;;;;;;;15.73;53.84;98790.66;5029531;28;20102;-62
2021/05/20 09:35:48;;;;;;;504.67;451.57;;;;;;;15.70;52.04;98803.72;5030183;28;20056;-62
2021/05/20 09:38:20;;;;;;;508.40;454.60;;;;;;;15.60;52.73;98794.59;5029120;28;20047;-62
2021/05/20 09:40:56;;;;;;;502.50;449.53;;;;;;;15.68;52.88;98780.50;5035261;28;20100;-62
2021/05/20 09:43:24;;;;;;;504.37;450.83;;;;;;;15.60;53.65;98781.69;5040532;28;20031;-65
2021/05/20 09:45:52;;;;;;;510.03;456.57;;;;;;;15.76;53.29;98781.06;5028341;28;20045;-63
2021/05/20 09:48:21;;;;;;;528.67;474.77;;;;;;;15.45;53.62;98777.88;5029573;28;20044;-62
2021/05/20 09:50:49;;;;;;;519.70;466.10;;;;;;;15.57;53.85;98794.72;5030129;28;20030;-63
2021/05/20 09:53:20;;;;;;;524.80;470.20;;;;;;;15.72;53.70;98782.06;5029602;28;20025;-64
2021/05/20 09:55:47;;;;;;;503.97;450.67;;;;;;;15.68;53.64;98775.34;5033891;28;20029;-62
2021/05/20 09:58:13;;;;;;;524.53;470.53;;;;;;;15.53;51.00;98765.56;5033886;28;20032;-62
2021/05/20 10:00:39;;;;;;;521.87;468.07;;;;;;;15.61;50.49;98796.28;5030267;28;20040;-62
2021/05/20 10:03:09;;;;;;;509.23;455.90;;;;;;;15.25;53.28;98783.75;5018609;28;20034;-62
2021/05/20 10:05:42;;;;;;;506.80;453.67;;;;;;;15.36;55.10;98794.53;5030070;28;20390;-62
2021/05/20 10:08:11;;;;;;;511.40;458.10;;;;;;;15.13;54.74;98802.28;5031590;28;20104;-63
2021/05/20 10:10:39;;;;;;;507.77;454.50;;;;;;;15.15;55.03;98786.72;5029201;28;20278;-63
2021/05/20 10:13:26;;;;;;;493.27;440.33;;;;;;;14.88;55.60;98786.78;5033445;28;20046;-63
2021/05/20 10:15:53;;;;;;;497.53;444.37;;;;;;;15.17;55.22;98783.19;5031439;28;20057;-63
2021/05/20 10:18:27;;;;;;;510.30;456.93;;;;;;;15.77;53.80;98794.81;5029763;28;20032;-62
2021/05/20 10:20:57;;;;;;;506.03;452.80;;;;;;;15.62;52.89;98790.22;5025001;28;20286;-63
2021/05/20 10:23:24;;;;;;;498.30;445.20;;;;;;;15.72;54.11;98786.41;5030936;28;20108;-63
2021/05/20 10:25:52;;;;;;;501.37;448.17;;;;;;;15.09;57.50;98782.63;5034468;28;20386;-64
2021/05/20 10:28:19;;;;;;;508.20;454.70;;;;;;;15.39;56.38;98798.78;5017539;28;20033;-63
2021/05/20 10:30:47;;;;;;;503.50;450.27;;;;;;;15.66;54.80;98809.91;5028720;28;20053;-63
2021/05/20 10:33:18;;;;;;;506.30;453.23;;;;;;;15.73;55.23;98786.34;5031713;28;20021;-63
2021/05/20 10:35:49;;;;;;;513.90;460.57;;;;;;;16.15;53.03;98790.78;5031016;28;20029;-63
2021/05/20 10:38:36;;;;;;;526.53;472.60;;;;;;;15.78;52.02;98799.09;5028766;28;20429;-63
2021/05/20 10:41:12;;;;;;;522.50;468.73;;;;;;;15.83;53.78;98792.84;5033394;28;20464;-63
2021/05/20 10:43:39;;;;;;;535.40;480.97;;;;;;;15.84;51.35;98793.69;5028047;28;20124;-63
2021/05/20 10:46:15;;;;;;;555.90;501.10;;;;;;;16.28;50.45;98785.06;5026802;28;20038;-63
2021/05/20 10:48:51;;;;;;;540.17;486.30;;;;;;;16.18;50.33;98775.97;5024998;28;20078;-63
2021/05/20 10:51:29;;;;;;;529.40;475.40;;;;;;;16.17;51.35;98782.03;5026768;28;20030;-63
2021/05/20 10:54:01;;;;;;;529.47;475.77;;;;;;;16.22;50.09;98780.13;5007849;28;20036;-63
2021/05/20 10:56:26;;;;;;;537.20;483.20;;;;;;;16.15;50.65;98775.25;5025363;28;20033;-63
2021/05/20 10:58:51;;;;;;;538.40;484.53;;;;;;;16.07;51.21;98788.50;5029750;28;20426;-63
2021/05/20 11:01:20;;;;;;;542.43;488.70;;;;;;;16.23;50.53;98780.97;5015571;28;20396;-63
2021/05/20 11:03:51;;;;;;;551.07;495.97;;;;;;;16.56;50.62;98781.38;5030960;28;20120;-63
2021/05/20 11:06:18;;;;;;;573.73;518.37;;;;;;;16.83;50.26;98791.47;5027434;28;20038;-63
2021/05/20 11:08:46;;;;;;;557.73;503.07;;;;;;;16.45;50.77;98774.06;5029466;28;20021;-63
2021/05/20 11:11:38;;;;;;;560.33;505.40;;;;;;;15.93;50.58;98770.91;5028479;28;20072;-63
2021/05/20 11:14:12;;;;;;;527.70;473.60;;;;;;;15.75;50.87;98787.13;4996047;28;20042;-63